Time;durP1;ratioP1;P1;durP2;ratioP2;P2;SDS_P1;SDS_P2;PMS_P1;PMS_P2;Temp;Humidity;BMP_temperature;BMP_pressure;BME280_temperature;BME280_humidity;BME280_pressure;Samples;Min_cycle;Max_cycle;Signal;HPM_P1;HPM_P2
2021/01/12 00:00:28;;;;;;;29.88;18.83;;;4.90;99.90;;;5.22;96.95;100049.06;5015300;28;20065;-80
2021/01/12 00:02:57;;;;;;;25.98;16.92;;;4.90;99.90;;;5.31;97.19;100041.50;5033818;28;20451;-83
2021/01/12 00:05:23;;;;;;;32.38;19.00;;;4.90;99.90;;;5.27;97.00;100038.59;5020511;28;20041;-82
2021/01/12 00:07:50;;;;;;;31.58;18.60;;;4.90;99.90;;;5.35;97.48;100038.88;5017525;28;20416;-82
2021/01/12 00:10:20;;;;;;;31.98;19.42;;;4.90;99.90;;;5.32;96.95;100023.75;5016120;28;20030;-79
2021/01/12 00:12:52;;;;;;;32.50;19.58;;;4.90;99.90;;;5.34;97.11;100024.22;5014715;28;20032;-80
2021/01/12 00:15:19;;;;;;;34.15;19.02;;;4.90;99.90;;;5.27;97.22;100021.97;5032200;28;20040;-79
2021/01/12 00:17:45;;;;;;;31.27;19.60;;;4.90;99.90;;;5.31;97.30;100016.56;5032700;28;20080;-81
2021/01/12 00:20:12;;;;;;;32.40;19.25;;;4.90;99.90;;;5.28;97.27;99995.09;5014933;28;20437;-80
2021/01/12 00:22:39;;;;;;;31.63;18.58;;;4.90;99.90;;;5.29;97.40;99993.97;5032963;28;20040;-78
2021/01/12 00:25:09;;;;;;;33.28;20.13;;;4.90;99.90;;;5.32;97.38;99998.81;5032654;28;20435;-79
2021/01/12 00:27:35;;;;;;;31.50;18.90;;;4.90;99.90;;;5.35;97.38;99986.25;5015427;28;20033;-81
2021/01/12 00:30:00;;;;;;;34.05;19.67;;;4.90;99.90;;;5.33;97.88;99992.13;5015127;28;20524;-82
2021/01/12 00:32:28;;;;;;;28.77;18.27;;;4.90;99.90;;;5.32;97.80;99988.56;5033042;28;20396;-78
2021/01/12 00:34:55;;;;;;;34.30;19.60;;;4.90;99.90;;;5.37;97.34;99997.78;5032912;28;20026;-78
2021/01/12 00:37:25;;;;;;;29.40;17.65;;;4.90;99.90;;;5.41;97.75;99982.13;5023047;28;20041;-79
2021/01/12 00:42:38;;;;;;;32.17;18.13;;;5.00;99.90;;;5.44;97.42;99964.81;5032833;28;20045;-80
2021/01/12 00:45:05;;;;;;;34.88;19.20;;;5.00;99.90;;;5.35;97.73;99959.38;5032867;28;20033;-79
2021/01/12 00:47:32;;;;;;;34.15;19.60;;;5.00;99.90;;;5.37;97.88;99964.56;5015712;28;20397;-81
2021/01/12 00:49:58;;;;;;;30.63;20.13;;;5.00;99.90;;;5.46;97.65;99962.53;5015079;28;20060;-80
2021/01/12 00:52:24;;;;;;;32.28;18.27;;;5.10;99.90;;;5.51;96.78;99962.31;5014762;28;20508;-80
2021/01/12 00:54:50;;;;;;;30.88;18.10;;;5.10;99.90;;;5.58;96.41;99960.63;5014954;28;20025;-81
2021/01/12 00:57:16;;;;;;;29.25;19.15;;;5.10;99.90;;;5.53;96.24;99946.16;5014890;28;20021;-78
2021/01/12 00:59:45;;;;;;;31.27;17.05;;;5.10;99.90;;;5.53;95.97;99949.75;5031166;28;20026;-81
2021/01/12 01:02:12;;;;;;;26.92;16.08;;;5.20;99.90;;;5.58;95.51;99944.00;5014557;28;20025;-82
2021/01/12 01:04:38;;;;;;;29.92;18.00;;;5.20;99.90;;;5.65;95.96;99949.00;5014657;28;20034;-79
2021/01/12 01:07:03;;;;;;;27.23;16.23;;;5.20;99.90;;;5.58;96.30;99945.97;5032111;28;20452;-81
2021/01/12 01:09:29;;;;;;;27.45;16.55;;;5.10;99.90;;;5.43;96.65;99941.84;5014502;28;20516;-79
2021/01/12 01:11:58;;;;;;;28.88;16.98;;;5.10;99.90;;;5.57;96.46;99942.38;5032431;28;20213;-81
2021/01/12 01:14:24;;;;;;;23.85;15.68;;;5.10;99.90;;;5.63;96.72;99929.09;5031871;28;20445;-80
2021/01/12 01:16:50;;;;;;;24.00;15.30;;;5.10;99.90;;;5.52;97.07;99919.63;5014915;28;20033;-80
2021/01/12 01:19:16;;;;;;;27.73;16.45;;;5.10;99.90;;;5.54;97.42;99920.91;5015085;28;20030;-81
2021/01/12 01:21:46;;;;;;;26.83;16.42;;;5.10;99.90;;;5.48;97.48;99918.69;5014904;28;20043;-81
2021/01/12 01:24:12;;;;;;;23.85;15.98;;;5.10;99.90;;;5.43;97.81;99911.38;5032807;28;20113;-83
2021/01/12 01:26:40;;;;;;;21.88;14.40;;;5.10;99.90;;;5.58;96.73;99907.19;5014667;28;20039;-81
2021/01/12 01:29:06;;;;;;;30.60;17.10;;;5.20;99.90;;;5.57;97.30;99894.47;5014384;28;20030;-82
2021/01/12 01:31:39;;;;;;;24.50;15.40;;;5.20;99.90;;;5.61;97.09;99889.88;5014447;28;20045;-81
2021/01/12 01:34:06;;;;;;;25.00;14.98;;;5.20;99.90;;;5.62;97.02;99895.06;5013974;28;20125;-82
2021/01/12 01:36:32;;;;;;;21.92;14.57;;;5.20;99.90;;;5.66;96.97;99889.63;5014521;28;20477;-81
2021/01/12 01:38:57;;;;;;;25.25;15.68;;;5.20;99.90;;;5.63;96.76;99891.13;5031722;28;20044;-81
2021/01/12 01:41:23;;;;;;;22.65;14.73;;;5.30;99.90;;;5.60;96.98;99894.59;5014319;28;20037;-82
2021/01/12 01:43:49;;;;;;;23.08;14.18;;;5.30;99.90;;;5.67;97.26;99883.75;5013463;28;20025;-80
2021/01/12 01:46:16;;;;;;;24.73;14.60;;;5.20;99.90;;;5.78;96.68;99864.72;5030772;28;20401;-80
2021/01/12 01:48:42;;;;;;;23.15;13.95;;;5.30;99.90;;;5.71;97.02;99879.16;5032601;28;20130;-80
2021/01/12 01:51:10;;;;;;;21.30;13.43;;;5.30;99.90;;;5.74;96.19;99883.19;5018450;28;20038;-82
2021/01/12 01:53:37;;;;;;;23.48;15.50;;;5.40;99.90;;;5.70;96.42;99862.88;5034929;28;20033;-81
2021/01/12 01:56:08;;;;;;;21.25;13.85;;;5.30;99.90;;;5.77;96.32;99857.56;5035006;28;20029;-80
2021/01/12 01:58:43;;;;;;;22.55;13.98;;;5.30;99.90;;;5.72;96.45;99861.38;5035775;28;20760;-81
2021/01/12 02:01:10;;;;;;;19.42;11.82;;;5.30;99.90;;;5.65;96.44;99854.78;5016800;28;20523;-81
2021/01/12 02:03:50;;;;;;;21.15;13.40;;;5.30;99.90;;;5.67;96.31;99844.97;5034301;28;20060;-80
2021/01/12 02:06:28;;;;;;;18.38;12.10;;;5.30;99.90;;;5.79;95.88;99853.28;5016981;28;20054;-82
2021/01/12 02:09:22;;;;;;;15.65;10.57;;;5.30;99.90;;;5.74;95.76;99845.22;5016791;28;20040;-79
2021/01/12 02:11:57;;;;;;;19.30;10.82;;;5.30;99.90;;;5.73;95.86;99838.06;5034322;28;20033;-83
2021/01/12 02:14:33;;;;;;;18.38;10.95;;;5.40;99.90;;;5.75;96.32;99827.41;5016685;28;20048;-80
2021/01/12 02:17:02;;;;;;;18.15;10.40;;;5.30;99.90;;;5.72;95.82;99824.53;5016795;28;20025;-82
2021/01/12 02:19:28;;;;;;;14.50;10.23;;;5.30;99.90;;;5.72;96.29;99825.34;5016760;28;20519;-82
2021/01/12 02:22:03;;;;;;;13.93;9.05;;;5.30;99.90;;;5.78;95.51;99806.53;5032770;28;20044;-81
2021/01/12 02:24:33;;;;;;;13.27;8.73;;;5.30;99.90;;;5.75;96.10;99801.69;5034046;28;20035;-80
2021/01/12 02:26:59;;;;;;;10.20;7.50;;;5.30;99.90;;;5.79;95.75;99799.84;5034134;28;20029;-80
2021/01/12 02:29:25;;;;;;;12.10;8.23;;;5.30;99.90;;;5.84;95.48;99807.94;5034215;28;20143;-80
2021/01/12 02:31:52;;;;;;;11.30;7.75;;;5.40;99.90;;;5.80;95.68;99791.19;5016448;28;20033;-80
2021/01/12 02:34:22;;;;;;;13.20;8.35;;;5.40;99.90;;;5.85;96.07;99790.13;5016158;28;20030;-82
2021/01/12 02:36:51;;;;;;;11.82;8.05;;;5.40;99.90;;;5.86;95.55;99785.44;5016247;28;20029;-82
2021/01/12 02:39:20;;;;;;;11.65;8.20;;;5.40;99.90;;;5.81;96.05;99781.69;5015941;28;20037;-82
2021/01/12 02:41:46;;;;;;;12.77;8.30;;;5.40;99.90;;;5.72;96.32;99769.94;5016611;28;20068;-81
2021/01/12 02:44:24;;;;;;;10.02;7.53;;;5.40;99.90;;;5.67;97.04;99770.19;5052532;22;20041;-79
2021/01/12 02:46:55;;;;;;;11.00;7.40;;;5.40;99.90;;;5.82;96.10;99765.88;5066805;28;20033;-78
2021/01/12 02:49:21;;;;;;;13.13;7.88;;;5.40;99.90;;;5.82;96.08;99771.44;5066603;28;20036;-81
2021/01/12 02:51:47;;;;;;;12.60;7.40;;;5.40;99.90;;;5.86;95.93;99757.72;5064639;28;20059;-80
2021/01/12 02:54:13;;;;;;;10.93;7.40;;;5.40;99.90;;;5.83;96.28;99757.25;5061624;28;20030;-79
2021/01/12 02:56:39;;;;;;;12.60;8.02;;;5.40;99.90;;;5.86;96.55;99752.19;5029199;28;20472;-80
2021/01/12 02:59:05;;;;;;;12.05;8.40;;;5.40;99.90;;;5.92;96.22;99734.97;5045428;28;20026;-79
2021/01/12 03:01:30;;;;;;;13.95;8.32;;;5.40;99.90;;;5.79;96.65;99731.38;5046641;28;20057;-81
2021/01/12 03:03:56;;;;;;;12.82;8.35;;;5.40;99.90;;;5.83;96.33;99721.22;5030711;28;20038;-79
2021/01/12 03:06:25;;;;;;;11.77;8.18;;;5.40;99.90;;;5.87;96.27;99721.38;5046125;28;20091;-79
2021/01/12 03:08:54;;;;;;;12.23;7.40;;;5.50;99.90;;;5.92;96.04;99709.22;5047100;28;20056;-80
2021/01/12 03:11:20;;;;;;;10.32;7.28;;;5.50;99.90;;;5.90;96.07;99719.84;5030133;28;20037;-79
2021/01/12 03:13:46;;;;;;;11.48;7.50;;;5.40;99.90;;;5.93;96.05;99702.53;5048214;28;20036;-80
2021/01/12 03:16:11;;;;;;;10.57;7.28;;;5.40;99.90;;;5.91;96.25;99711.16;5027630;28;20063;-79
2021/01/12 03:18:37;;;;;;;8.93;6.07;;;5.50;99.90;;;5.91;96.41;99711.16;5046057;28;20077;-80
2021/01/12 03:21:04;;;;;;;10.23;6.38;;;5.50;99.90;;;5.94;96.23;99682.75;5026325;28;20033;-80
2021/01/12 03:23:30;;;;;;;8.98;6.68;;;5.50;99.90;;;5.94;96.13;99699.38;5024923;28;20097;-78
2021/01/12 03:25:55;;;;;;;8.20;5.88;;;5.50;99.90;;;5.92;96.12;99693.41;5045203;28;20029;-81
2021/01/12 03:28:21;;;;;;;9.15;5.82;;;5.50;99.90;;;5.97;96.31;99687.63;5046473;28;20033;-80
2021/01/12 03:30:50;;;;;;;8.95;6.15;;;5.50;99.90;;;5.94;96.57;99693.84;5039654;28;20029;-78
2021/01/12 03:33:16;;;;;;;8.07;5.63;;;5.50;99.90;;;5.91;96.36;99677.13;5029211;28;20112;-79
2021/01/12 03:35:42;;;;;;;9.50;5.55;;;5.50;99.90;;;6.00;96.17;99675.84;5018246;28;20091;-79
2021/01/12 03:38:07;;;;;;;7.43;5.38;;;5.50;99.90;;;5.94;96.30;99671.66;5036235;28;20025;-82
2021/01/12 03:40:33;;;;;;;7.63;5.10;;;5.50;99.90;;;6.02;96.04;99675.47;5036715;28;20521;-79
2021/01/12 03:42:59;;;;;;;8.30;5.57;;;5.50;99.90;;;5.96;97.07;99677.69;5036390;28;20040;-79
2021/01/12 03:45:28;;;;;;;8.40;5.05;;;5.50;99.90;;;6.04;96.49;99667.59;5019246;28;20033;-78
2021/01/12 03:47:54;;;;;;;6.63;4.18;;;5.50;99.90;;;6.07;95.88;99645.53;5038232;28;20034;-81
2021/01/12 03:50:19;;;;;;;5.35;4.28;;;5.60;99.90;;;6.13;96.13;99648.88;5038641;28;20064;-78
2021/01/12 03:52:45;;;;;;;6.15;4.60;;;5.70;99.90;;;6.14;95.95;99645.75;5037027;28;20029;-79
2021/01/12 03:55:11;;;;;;;6.40;4.55;;;5.70;99.90;;;6.15;96.24;99644.59;5019623;28;20034;-77
2021/01/12 03:57:37;;;;;;;8.00;4.80;;;5.70;99.90;;;6.15;96.15;99646.53;5036807;28;20109;-80
2021/01/12 04:00:05;;;;;;;5.43;4.03;;;5.70;99.90;;;6.16;96.14;99640.66;5037655;28;20072;-81
2021/01/12 04:02:31;;;;;;;5.25;3.83;;;5.70;99.90;;;6.28;95.80;99637.00;5036087;28;20039;-77
2021/01/12 04:04:57;;;;;;;4.75;3.55;;;5.70;99.90;;;6.22;96.08;99616.25;5036478;28;20034;-80
2021/01/12 04:07:23;;;;;;;6.53;4.40;;;5.70;99.90;;;6.18;96.29;99623.66;5017640;28;20481;-78
2021/01/12 04:09:51;;;;;;;6.72;4.28;;;5.70;99.90;;;6.26;96.43;99625.50;5035542;28;20049;-78
2021/01/12 04:12:17;;;;;;;5.80;4.00;;;5.70;99.90;;;6.19;96.55;99609.47;5035398;28;20036;-81
2021/01/12 04:14:42;;;;;;;5.30;4.20;;;5.70;99.90;;;6.23;96.50;99620.63;5035449;28;20025;-78
2021/01/12 04:17:08;;;;;;;6.28;4.10;;;5.70;99.90;;;6.28;96.25;99609.28;5019134;28;20029;-79
2021/01/12 04:19:34;;;;;;;8.45;4.05;;;5.80;99.90;;;6.23;96.75;99599.25;5017788;28;20061;-79
2021/01/12 04:22:00;;;;;;;5.85;4.28;;;5.70;99.90;;;6.19;97.17;99605.88;5035539;28;20040;-77
2021/01/12 04:24:26;;;;;;;6.18;4.18;;;5.80;99.90;;;6.27;96.59;99591.84;5035157;28;20044;-77
2021/01/12 04:26:51;;;;;;;6.55;3.60;;;5.80;99.90;;;6.41;96.38;99599.75;5036443;28;20055;-79
2021/01/12 04:29:17;;;;;;;5.57;3.78;;;5.90;99.90;;;6.44;96.22;99596.25;5017802;28;20029;-79
2021/01/12 04:31:43;;;;;;;7.28;3.70;;;5.90;99.90;;;6.50;95.96;99586.50;5017625;28;20437;-77
2021/01/12 04:34:09;;;;;;;4.75;3.53;;;5.90;99.90;;;6.45;95.89;99572.09;5036081;28;20036;-79
2021/01/12 04:36:35;;;;;;;4.38;3.25;;;5.90;99.90;;;6.55;96.15;99582.69;5036412;28;20099;-79
2021/01/12 04:39:01;;;;;;;4.63;3.63;;;5.90;99.90;;;6.37;96.98;99571.09;5035727;28;20423;-79
2021/01/12 04:41:27;;;;;;;5.60;3.78;;;6.00;99.90;;;6.39;97.03;99571.53;5018302;28;20155;-78
2021/01/12 04:43:53;;;;;;;5.65;3.35;;;6.00;99.90;;;6.53;97.08;99566.38;5036707;28;20045;-79
2021/01/12 04:46:18;;;;;;;5.30;3.05;;;6.00;99.90;;;6.54;96.99;99564.41;5037162;28;20041;-78
2021/01/12 04:48:45;;;;;;;5.78;3.28;;;6.00;99.90;;;6.60;96.67;99558.25;5018967;28;20030;-79
2021/01/12 04:51:12;;;;;;;3.80;2.80;;;6.10;99.90;;;6.60;96.90;99557.44;5019455;28;20030;-81
2021/01/12 04:53:46;;;;;;;3.13;2.70;;;6.10;99.90;;;6.61;96.89;99547.94;5017397;28;20465;-80
2021/01/12 04:56:21;;;;;;;3.58;2.67;;;6.10;99.90;;;6.71;96.42;99536.31;5032890;28;20040;-78
2021/01/12 04:58:52;;;;;;;3.58;2.47;;;6.20;99.90;;;6.69;96.65;99539.44;5037990;28;20069;-78
2021/01/12 05:01:23;;;;;;;4.53;2.67;;;6.20;99.90;;;6.67;96.87;99544.56;5032886;28;20113;-77
2021/01/12 05:03:53;;;;;;;4.60;2.72;;;6.20;99.90;;;6.68;97.15;99537.81;5033674;28;20166;-79
2021/01/12 05:06:26;;;;;;;3.72;2.72;;;6.20;99.90;;;6.71;96.54;99528.00;5033687;28;20038;-78
2021/01/12 05:08:56;;;;;;;4.03;2.38;;;6.20;99.90;;;6.75;96.48;99521.34;5034668;28;20036;-78
2021/01/12 05:11:34;;;;;;;4.43;2.42;;;6.20;99.90;;;6.76;96.12;99511.88;5016919;28;20025;-77
2021/01/12 05:14:08;;;;;;;3.45;2.22;;;6.30;99.90;;;6.84;95.95;99519.19;5034339;28;20033;-78
2021/01/12 05:16:56;;;;;;;2.75;2.10;;;6.40;99.90;;;6.86;95.97;99518.84;5034181;28;20029;-78
2021/01/12 05:19:32;;;;;;;3.97;2.65;;;6.30;99.90;;;6.84;96.72;99524.72;5033662;28;20108;-79
2021/01/12 05:22:04;;;;;;;2.97;2.20;;;6.30;99.90;;;6.83;96.75;99511.22;5034595;28;20018;-78
2021/01/12 05:24:40;;;;;;;4.00;2.10;;;6.30;99.90;;;6.81;96.72;99503.25;5018208;28;20094;-80
2021/01/12 05:27:09;;;;;;;3.55;2.53;;;6.40;99.90;;;6.77;97.18;99507.13;5036823;28;20045;-80
2021/01/12 05:29:39;;;;;;;3.70;2.30;;;6.30;99.90;;;6.87;96.82;99499.03;5037291;28;20025;-79
2021/01/12 05:32:12;;;;;;;5.05;3.00;;;6.30;99.90;;;6.88;96.73;99500.66;5019783;28;20074;-78
2021/01/12 05:34:38;;;;;;;2.13;1.83;;;6.30;99.90;;;6.90;96.64;99489.97;5037897;28;20063;-80
2021/01/12 05:37:09;;;;;;;2.50;2.17;;;6.40;99.90;;;6.97;96.42;99499.66;5038411;28;20346;-83
2021/01/12 05:39:42;;;;;;;3.92;2.17;;;6.40;99.90;;;6.93;96.73;99490.44;5020984;28;20033;-86
2021/01/12 05:42:11;;;;;;;2.78;2.17;;;6.40;99.90;;;6.93;97.04;99496.00;5038168;28;20029;-82
2021/01/12 05:44:41;;;;;;;2.65;1.98;;;6.40;99.90;;;6.94;96.84;99478.16;5020732;28;20025;-85
2021/01/12 05:47:15;;;;;;;2.75;1.95;;;6.40;99.90;;;6.93;96.70;99474.59;5021682;28;20151;-83
2021/01/12 05:49:44;;;;;;;3.50;1.70;;;6.40;99.90;;;7.07;96.23;99469.34;5039220;28;20025;-86
2021/01/12 05:52:11;;;;;;;2.30;1.75;;;6.50;99.90;;;7.15;95.89;99479.44;5039372;28;20056;-85
2021/01/12 05:54:37;;;;;;;2.35;1.95;;;6.50;99.90;;;7.06;96.52;99469.72;5022850;28;20117;-85
2021/01/12 05:57:07;;;;;;;2.67;2.15;;;6.50;99.90;;;7.03;96.71;99464.91;5024252;28;20040;-84
2021/01/12 05:59:38;;;;;;;3.78;2.08;;;6.40;99.90;;;7.02;96.89;99452.97;5041399;28;20029;-84
2021/01/12 06:02:10;;;;;;;2.85;2.00;;;6.40;99.90;;;7.12;96.17;99449.63;5022800;28;20028;-86
2021/01/12 06:04:37;;;;;;;3.78;1.70;;;6.50;99.90;;;7.09;96.28;99455.91;5023551;28;20030;-83
2021/01/12 06:07:05;;;;;;;2.58;2.10;;;6.50;99.90;;;7.12;95.93;99455.19;5023987;28;20025;-85
2021/01/12 06:09:31;;;;;;;1.83;1.70;;;6.60;99.90;;;7.06;96.37;99447.50;5043274;28;20468;-84
2021/01/12 06:12:00;;;;;;;1.92;1.67;;;6.60;99.90;;;7.14;96.34;99444.50;5026628;28;20034;-84
2021/01/12 06:14:29;;;;;;;2.33;1.65;;;6.60;99.90;;;7.11;96.28;99453.56;5031138;28;20030;-83
2021/01/12 06:17:01;;;;;;;2.55;1.85;;;6.60;99.90;;;7.04;96.74;99452.59;5044640;28;20029;-83
2021/01/12 06:19:29;;;;;;;4.05;2.03;;;6.70;99.90;;;7.18;96.21;99444.59;5023337;28;20056;-85
2021/01/12 06:21:55;;;;;;;2.78;2.10;;;6.60;99.90;;;7.19;96.26;99443.44;5023322;28;20032;-83
2021/01/12 06:24:38;;;;;;;4.07;2.05;;;6.60;99.90;;;7.26;96.18;99449.13;5041647;28;20026;-85
2021/01/12 06:27:19;;;;;;;2.83;1.65;;;6.60;99.90;;;7.23;96.72;99449.84;5024125;28;20421;-83
2021/01/12 06:29:49;;;;;;;2.83;2.00;;;6.60;99.90;;;7.18;96.93;99447.38;5023970;28;20083;-85
2021/01/12 06:32:24;;;;;;;4.00;1.88;;;6.60;99.90;;;7.16;97.09;99446.94;5022263;28;20021;-85
2021/01/12 06:35:05;;;;;;;4.78;2.35;;;6.70;99.90;;;7.24;96.50;99441.16;5020685;28;20036;-84
2021/01/12 06:37:40;;;;;;;2.28;2.03;;;6.70;99.90;;;7.17;96.94;99437.41;5020205;28;20040;-83
2021/01/12 06:40:13;;;;;;;3.85;2.78;;;6.70;99.90;;;7.21;96.56;99441.09;5018427;28;20025;-86
2021/01/12 06:42:40;;;;;;;4.35;2.13;;;6.70;99.90;;;7.20;96.55;99436.69;5039076;28;20025;-83
2021/01/12 06:45:08;;;;;;;6.07;2.42;;;6.70;99.90;;;7.25;96.75;99441.97;5021665;28;20068;-84
2021/01/12 06:47:37;;;;;;;3.33;2.30;;;6.70;99.90;;;7.26;96.45;99440.78;5021550;28;20116;-84
2021/01/12 06:50:16;;;;;;;4.80;2.20;;;6.70;99.90;;;7.21;96.81;99433.56;5039178;28;20034;-86
2021/01/12 06:52:51;;;;;;;3.28;2.55;;;6.60;99.90;;;7.28;96.74;99430.13;5022200;28;20025;-85
2021/01/12 06:55:21;;;;;;;2.85;2.40;;;6.70;99.90;;;7.32;96.75;99434.56;5022739;28;20049;-84
2021/01/12 06:57:49;;;;;;;2.88;2.10;;;6.60;99.90;;;7.26;97.05;99449.13;5040529;28;20026;-84
2021/01/12 07:00:21;;;;;;;4.30;2.20;;;6.60;99.90;;;7.12;97.65;99443.28;5023702;28;20052;-87
2021/01/12 07:02:59;;;;;;;2.33;1.98;;;6.60;99.90;;;7.18;97.81;99437.06;5042846;28;20120;-85
2021/01/12 07:05:42;;;;;;;3.67;2.00;;;6.60;99.90;;;7.12;97.96;99438.53;5026026;28;20036;-86
2021/01/12 07:08:10;;;;;;;3.20;2.40;;;6.50;99.90;;;7.16;97.80;99435.84;5024850;28;20449;-83
2021/01/12 07:10:47;;;;;;;4.20;2.30;;;6.60;99.90;;;7.21;97.61;99421.66;5035602;28;20040;-81
2021/01/12 07:13:14;;;;;;;3.45;2.53;;;6.60;99.90;;;7.11;98.14;99425.00;5032012;28;20029;-83
2021/01/12 07:15:49;;;;;;;3.22;2.40;;;6.60;99.90;;;7.20;97.64;99423.63;5020869;28;20060;-83
2021/01/12 07:18:23;;;;;;;2.53;1.97;;;6.70;99.90;;;7.24;97.69;99423.69;5020561;28;20030;-84
2021/01/12 07:21:27;;;;;;;4.13;1.90;;;6.70;99.90;;;7.34;97.31;99431.44;5020169;28;20022;-83
2021/01/12 07:24:04;;;;;;;12.95;6.82;;;6.70;99.90;;;7.46;97.03;99430.47;5037940;28;20036;-83
2021/01/12 07:26:57;;;;;;;;;;;;;;;;;;;;;
2021/01/12 07:29:23;;;;;;;3.38;1.77;;;6.70;99.90;;;7.20;97.99;99411.69;5040213;28;20120;-83
2021/01/12 07:31:49;;;;;;;2.67;2.20;;;6.60;99.90;;;7.20;98.31;99415.28;5041768;28;20065;-82
2021/01/12 07:34:15;;;;;;;4.35;2.25;;;6.60;99.90;;;7.38;97.64;99422.00;5037942;28;20481;-82
2021/01/12 07:36:52;;;;;;;3.45;2.00;;;6.60;99.90;;;7.22;98.66;99417.72;5021792;28;20120;-84
2021/01/12 07:39:19;;;;;;;2.38;2.00;;;6.60;99.90;;;7.14;99.44;99397.31;5020622;28;20393;-84
2021/01/12 07:41:48;;;;;;;4.70;2.15;;;6.60;99.90;;;7.30;98.19;99406.38;5038973;28;20117;-82
2021/01/12 07:44:18;;;;;;;3.05;1.90;;;6.70;99.90;;;7.28;98.04;99397.63;5037327;28;20026;-85
2021/01/12 07:46:45;;;;;;;4.10;2.65;;;6.70;99.90;;;7.23;98.31;99395.13;5019232;28;20056;-83
2021/01/12 07:49:25;;;;;;;3.50;2.13;;;6.70;99.90;;;7.23;98.68;99383.19;5018996;28;20036;-82
2021/01/12 07:51:59;;;;;;;3.17;2.08;;;6.70;99.90;;;7.32;98.18;99384.56;5019757;28;20067;-83
2021/01/12 07:54:45;;;;;;;4.72;1.75;;;6.80;99.90;;;7.39;98.07;99383.91;5018186;28;20049;-81
2021/01/12 07:57:14;;;;;;;4.03;2.20;;;6.90;99.90;;;7.36;97.97;99382.69;5017668;28;20033;-83
2021/01/12 07:59:48;;;;;;;2.17;1.95;;;6.80;99.90;;;7.40;98.04;99385.53;5018847;28;20037;-84
2021/01/12 08:02:18;;;;;;;2.47;1.80;;;6.90;99.90;;;7.38;97.93;99394.22;5024119;28;20021;-82
2021/01/12 08:04:45;;;;;;;2.60;1.90;;;6.90;99.90;;;7.43;97.87;99398.69;5024683;28;20120;-84
2021/01/12 08:07:27;;;;;;;3.00;1.48;;;6.90;99.90;;;7.50;97.50;99401.59;5024976;28;20116;-82
2021/01/12 08:10:09;;;;;;;2.28;1.73;;;7.00;99.90;;;7.44;98.01;99403.06;5026961;28;20053;-84
2021/01/12 08:12:43;;;;;;;1.50;1.35;;;6.90;99.90;;;7.46;98.22;99400.72;5024898;28;20030;-83
2021/01/12 08:15:18;;;;;;;2.10;1.70;;;7.00;99.90;;;7.41;98.92;99407.41;5023918;28;20413;-84
2021/01/12 08:17:52;;;;;;;2.77;1.97;;;6.90;99.90;;;7.47;98.59;99412.66;5021112;28;20039;-83
2021/01/12 08:20:23;;;;;;;3.05;1.75;;;6.90;99.90;;;7.55;98.34;99409.63;5021706;28;20026;-81
2021/01/12 08:23:02;;;;;;;3.78;2.00;;;7.00;99.90;;;7.52;98.53;99415.13;5021851;28;20029;-83
2021/01/12 08:25:37;;;;;;;4.53;2.60;;;7.00;99.90;;;7.55;98.59;99406.84;5020661;28;20044;-84
2021/01/12 08:28:27;;;;;;;2.55;2.22;;;7.00;99.90;;;7.59;98.30;99423.59;5020397;28;20026;-83
2021/01/12 08:31:23;;;;;;;2.47;2.17;;;7.00;99.90;;;7.55;99.07;99428.28;5037955;28;20022;-83
2021/01/12 08:34:02;;;;;;;3.72;3.03;;;7.00;99.90;;;7.61;98.95;99426.81;5022962;28;20315;-86
2021/01/12 08:36:57;;;;;;;4.22;3.20;;;7.00;99.90;;;7.54;99.42;99433.06;5021796;28;20045;-84
2021/01/12 08:39:51;;;;;;;5.38;4.65;;;7.00;99.90;;;7.67;98.82;99450.34;5020238;28;20033;-85
2021/01/12 08:42:32;;;;;;;6.60;4.00;;;7.00;99.90;;;7.74;98.82;99450.47;5021455;28;20025;-83
2021/01/12 08:44:59;;;;;;;5.38;4.32;;;6.90;99.90;;;7.61;99.46;99449.06;5021131;28;20029;-84
2021/01/12 08:47:27;;;;;;;5.57;4.45;;;6.90;99.90;;;7.62;99.66;99439.53;5019235;28;20026;-83
2021/01/12 08:50:15;;;;;;;4.93;3.97;;;7.00;99.90;;;7.76;98.95;99456.47;5019397;28;20040;-86
2021/01/12 08:52:49;;;;;;;6.57;4.63;;;7.00;99.90;;;7.72;99.05;99461.97;5021119;28;20033;-83
2021/01/12 08:55:21;;;;;;;5.28;4.30;;;7.00;99.90;;;7.68;99.63;99454.72;5023205;28;20030;-86
2021/01/12 08:58:00;;;;;;;6.20;4.32;;;7.00;99.90;;;7.80;98.89;99458.13;5030455;28;20026;-84
2021/01/12 09:00:32;;;;;;;9.30;6.50;;;7.00;99.90;;;7.79;99.19;99469.66;5026520;28;20025;-83
2021/01/12 09:03:01;;;;;;;8.80;5.50;;;7.00;99.90;;;7.82;98.91;99472.50;5022334;28;20037;-84
2021/01/12 09:05:32;;;;;;;10.13;6.15;;;7.00;99.90;;;7.76;99.20;99471.19;5039885;28;20085;-83
2021/01/12 09:08:10;;;;;;;14.32;8.95;;;7.00;99.90;;;7.78;99.33;99471.63;5040583;28;20388;-83
2021/01/12 09:10:39;;;;;;;9.55;7.78;;;7.00;99.90;;;7.82;99.22;99474.47;5022188;28;20064;-86
2021/01/12 09:13:08;;;;;;;17.30;11.27;;;7.00;99.90;;;7.86;99.52;99478.94;5021619;28;20029;-85
2021/01/12 09:15:48;;;;;;;10.68;7.57;;;7.00;99.90;;;7.91;98.90;99486.97;5039234;28;20075;-84
2021/01/12 09:18:24;;;;;;;8.43;6.35;;;7.10;99.90;;;7.85;99.03;99490.41;5023052;28;20036;-84
2021/01/12 09:21:06;;;;;;;11.85;7.38;;;7.10;99.90;;;7.84;99.71;99483.22;5023551;28;20045;-85
2021/01/12 09:23:32;;;;;;;10.95;6.85;;;7.00;99.90;;;7.89;99.07;99491.28;5033806;28;20048;-86
2021/01/12 09:26:02;;;;;;;11.25;8.27;;;7.10;99.90;;;7.88;99.53;99493.25;5027253;28;20110;-84
2021/01/12 09:28:35;;;;;;;9.75;7.68;;;7.10;99.90;;;7.93;99.08;99489.34;5039898;28;20033;-84
2021/01/12 09:31:11;;;;;;;9.05;6.78;;;7.10;99.90;;;7.92;99.24;99494.13;5022071;28;20064;-84
2021/01/12 09:33:51;;;;;;;13.40;9.32;;;7.10;99.90;;;7.92;99.41;99501.66;5021323;28;20021;-84
2021/01/12 09:36:23;;;;;;;11.45;7.47;;;7.10;99.90;;;8.00;98.85;99499.81;5039734;28;20495;-83
2021/01/12 09:38:53;;;;;;;12.27;8.18;;;7.20;99.90;;;7.99;98.57;99501.81;5023189;28;20068;-84
2021/01/12 09:41:28;;;;;;;11.93;8.73;;;7.20;99.90;;;8.04;98.54;99506.25;5023339;28;20029;-84
2021/01/12 09:43:56;;;;;;;11.48;7.65;;;7.20;99.90;;;8.06;98.02;99521.38;5024078;28;20085;-85
2021/01/12 09:46:23;;;;;;;9.73;6.35;;;7.20;99.90;;;7.97;97.29;99509.69;5043386;28;20033;-86
2021/01/12 09:48:50;;;;;;;9.23;6.32;;;7.20;99.90;;;8.01;96.94;99526.44;5026603;28;20037;-83
2021/01/12 09:51:16;;;;;;;4.78;3.53;;;7.20;99.90;;;7.89;96.31;99533.78;5023613;28;20064;-84
2021/01/12 09:53:48;;;;;;;8.02;1.77;;;7.20;99.90;;;7.74;95.92;99537.44;5025590;28;20387;-84
2021/01/12 09:56:17;;;;;;;2.92;1.23;;;7.10;99.90;;;7.70;95.53;99544.13;5021696;28;20029;-83
2021/01/12 09:58:45;;;;;;;1.40;0.93;;;7.10;99.90;;;7.76;95.37;99545.44;5021721;28;20032;-84
2021/01/12 10:01:13;;;;;;;1.63;1.33;;;7.10;99.90;;;7.71;95.41;99546.50;5021238;28;20033;-83
2021/01/12 10:03:39;;;;;;;1.33;1.00;;;7.00;99.90;;;7.75;95.89;99555.72;5021406;28;20441;-84
2021/01/12 10:06:05;;;;;;;2.95;1.23;;;7.00;99.90;;;7.73;95.72;99563.66;5021572;28;20033;-85
2021/01/12 10:08:33;;;;;;;4.63;1.80;;;7.00;99.90;;;7.75;95.74;99564.06;5022490;28;20078;-84
2021/01/12 10:10:59;;;;;;;3.83;1.83;;;7.00;99.90;;;7.77;95.60;99564.50;5039527;28;20037;-84
2021/01/12 10:13:25;;;;;;;2.88;1.60;;;7.00;99.90;;;7.72;95.83;99562.03;5022383;28;20202;-85
2021/01/12 10:15:51;;;;;;;2.80;1.67;;;7.00;99.90;;;7.72;95.39;99577.88;5038779;28;20112;-85
2021/01/12 10:18:16;;;;;;;3.90;2.15;;;7.00;99.90;;;7.76;95.79;99576.00;5020925;28;20029;-86
2021/01/12 10:20:42;;;;;;;6.95;3.50;;;7.00;99.90;;;7.77;95.86;99586.75;5020493;28;20032;-83
2021/01/12 10:23:09;;;;;;;11.55;5.63;;;7.00;99.90;;;7.76;95.88;99574.03;5021409;28;20314;-85
2021/01/12 10:25:35;;;;;;;3.85;2.70;;;7.00;99.90;;;7.73;96.60;99573.94;5020676;28;20030;-85
2021/01/12 10:28:03;;;;;;;4.70;2.30;;;7.00;99.90;;;7.77;96.77;99583.19;5037761;28;20400;-81
2021/01/12 10:30:32;;;;;;;7.47;3.97;;;7.00;99.90;;;7.77;96.67;99581.19;5019980;28;20033;-83
2021/01/12 10:32:58;;;;;;;6.70;4.35;;;7.00;99.90;;;7.79;97.23;99589.97;5037449;28;20025;-83
2021/01/12 10:35:24;;;;;;;4.38;2.88;;;7.00;99.90;;;7.82;97.37;99583.69;5038275;28;20040;-83
2021/01/12 10:37:49;;;;;;;12.63;7.43;;;7.00;99.90;;;7.81;96.65;99589.59;5020459;28;20025;-84
2021/01/12 10:40:17;;;;;;;7.20;3.88;;;7.00;99.90;;;7.81;96.32;99584.03;5020173;28;20210;-84
2021/01/12 10:42:45;;;;;;;5.75;3.80;;;7.10;99.90;;;7.87;96.67;99579.78;5037912;28;20033;-84
2021/01/12 10:45:13;;;;;;;6.65;3.92;;;7.10;99.90;;;7.88;95.91;99585.00;5020045;28;20058;-85